This is the latest recevied weather packets stored in our database for station/object N3WGC-14. If no packets are shown the sender has not sent any weather packets the latest 10 day(s).
| Time | Temp. | Humidity | Pressure | Rain* | Wind** | Luminosity | Snow |
|---|---|---|---|---|---|---|---|
| 1787471487 | 21.11° C | 99% | 1009.5 hPa | 0 mm | - | - | - |
| 1787471187 | 21.11° C | 99% | 1009.4 hPa | 0 mm | - | - | - |
| 1787470887 | 21.11° C | 99% | 1009.3 hPa | 0 mm | - | - | - |
| 1787470586 | 21.11° C | 99% | 1009.4 hPa | 0 mm | - | - | - |
| 1787470286 | 21.11° C | 99% | 1009.4 hPa | 0 mm | - | - | - |
| 1787469986 | 21.11° C | 99% | 1009.4 hPa | 0 mm | - | - | - |
| 1787469686 | 21.11° C | 99% | 1009.4 hPa | 0 mm | - | - | - |
| 1787469386 | 21.67° C | 99% | 1009.2 hPa | 0 mm | - | - | - |
| 1787469086 | 21.67° C | 99% | 1009.4 hPa | 0 mm | - | - | - |
| 1787468786 | 21.67° C | 99% | 1009.3 hPa | 0 mm | - | - | - |
| 1787468485 | 21.67° C | 99% | 1009.3 hPa | 0 mm | - | - | - |
| 1787468185 | 21.67° C | 99% | 1009.1 hPa | 0 mm | - | - | - |
| 1787467885 | 21.67° C | 99% | 1008.9 hPa | 0 mm | - | - | - |
| 1787467585 | 21.67° C | 99% | 1008.8 hPa | 0 mm | - | - | - |
| 1787467285 | 21.67° C | 99% | 1009 hPa | 0.25 mm | - | - | - |
| 1787466985 | 21.67° C | 99% | 1009.2 hPa | 0.51 mm | - | - | - |
| 1787466684 | 21.67° C | 99% | 1009.4 hPa | 1.27 mm | - | - | - |
| 1787466384 | 21.67° C | 99% | 1009.7 hPa | 2.03 mm | - | - | - |
| 1787466084 | 21.67° C | 99% | 1010 hPa | 2.54 mm | - | - | - |
| 1787465784 | 21.67° C | 99% | 1010.1 hPa | 2.79 mm | - | - | - |
| 1787465484 | 21.67° C | 99% | 1010.3 hPa | 2.79 mm | - | - | - |
| 1787465184 | 21.67° C | 99% | 1010.3 hPa | 3.05 mm | - | - | - |
| 1787464884 | 21.67° C | 99% | 1010.4 hPa | 3.56 mm | - | - | - |
| 1787464583 | 21.67° C | 99% | 1010.1 hPa | 3.81 mm | - | - | - |
| 1787464283 | 21.67° C | 99% | 1010.2 hPa | 3.81 mm | - | - | - |
* Rain latest hour (hover to see other rain measurements)
** Current wind speed in m/s (hover to see current wind gust speed)